Time;durP1;ratioP1;P1;durP2;ratioP2;P2;SDS_P1;SDS_P2;PMS_P1;PMS_P2;Temp;Humidity;BMP_temperature;BMP_pressure;BME280_temperature;BME280_humidity;BME280_pressure;Samples;Min_cycle;Max_cycle;Signal;HPM_P1;HPM_P2
2022/07/04 00:00:30;;;;;;;6.13;3.95;;;;;;;22.60;75.04;94834.88;5051685;28;20231;-59
2022/07/04 00:02:55;;;;;;;5.63;3.35;;;;;;;22.52;73.01;94866.94;5051748;28;20197;-63
2022/07/04 00:05:21;;;;;;;5.65;3.35;;;;;;;22.44;72.62;94867.91;5051812;28;20252;-64
2022/07/04 00:07:49;;;;;;;4.53;3.50;;;;;;;22.30;73.34;94844.78;5052086;28;20241;-61
2022/07/04 00:10:17;;;;;;;5.78;3.35;;;;;;;22.34;74.20;94838.97;5051604;28;20177;-61
2022/07/04 00:12:44;;;;;;;6.75;3.15;;;;;;;22.27;74.04;94851.13;5051917;28;20201;-60
2022/07/04 00:15:11;;;;;;;4.45;3.40;;;;;;;22.33;74.26;94829.63;5051534;28;20230;-61
2022/07/04 00:17:36;;;;;;;5.85;3.03;;;;;;;22.34;74.04;94836.38;5052173;28;20205;-60
2022/07/04 00:20:04;;;;;;;6.57;3.35;;;;;;;22.50;75.55;94806.72;5033930;28;20184;-66
2022/07/04 00:22:29;;;;;;;5.57;2.80;;;;;;;22.63;73.57;94856.00;5051897;28;20679;-65
2022/07/04 00:24:55;;;;;;;3.83;3.03;;;;;;;22.68;73.54;94852.81;5051700;28;20173;-61
2022/07/04 00:27:20;;;;;;;7.82;3.10;;;;;;;22.61;71.46;94883.91;5051887;28;20758;-60
2022/07/04 00:29:45;;;;;;;3.67;3.00;;;;;;;22.60;71.74;94865.97;5051541;28;20175;-64
2022/07/04 00:32:11;;;;;;;7.70;3.20;;;;;;;22.64;70.89;94877.53;5051830;28;20213;-64
2022/07/04 00:34:36;;;;;;;4.82;3.00;;;;;;;22.49;72.91;94828.44;5051486;28;20247;-64
2022/07/04 00:37:02;;;;;;;4.22;3.58;;;;;;;22.51;72.23;94853.16;5058420;22;20252;-65
2022/07/04 00:39:28;;;;;;;4.25;3.20;;;;;;;22.53;73.90;94814.09;5051453;28;20256;-65
2022/07/04 00:41:53;;;;;;;3.38;2.97;;;;;;;22.64;71.96;94849.81;5033441;28;20308;-66
2022/07/04 00:44:20;;;;;;;4.97;3.08;;;;;;;22.65;70.40;94884.28;5051343;28;20214;-64
2022/07/04 00:46:46;;;;;;;4.93;3.08;;;;;;;22.60;74.04;94809.75;5050926;28;20222;-65
2022/07/04 00:49:14;;;;;;;3.72;3.08;;;;;;;22.81;71.75;94860.56;5065027;22;20236;-64
2022/07/04 00:51:41;;;;;;;3.38;3.08;;;;;;;22.73;71.20;94866.75;5051335;28;20553;-64
2022/07/04 00:54:09;;;;;;;4.68;2.85;;;;;;;22.69;71.35;94855.19;5051658;28;20267;-65
2022/07/04 00:56:36;;;;;;;6.82;3.50;;;;;;;22.63;72.40;94832.66;5052685;23;20225;-64
2022/07/04 00:59:02;;;;;;;4.18;3.42;;;;;;;22.73;71.60;94856.41;5075210;28;20173;-64
2022/07/04 01:01:28;;;;;;;3.58;3.28;;;;;;;22.89;69.25;94902.69;5075540;28;20299;-65
2022/07/04 01:03:54;;;;;;;3.58;3.00;;;;;;;22.73;69.82;94876.34;5075227;28;20217;-64
2022/07/04 01:06:19;;;;;;;3.53;3.22;;;;;;;22.44;71.16;94851.56;5074782;28;20211;-64
2022/07/04 01:08:46;;;;;;;6.45;3.38;;;;;;;22.36;73.60;94802.53;5074870;28;20260;-60
2022/07/04 01:11:12;;;;;;;5.43;3.45;;;;;;;22.49;71.47;94843.97;5075243;28;20269;-65
2022/07/04 01:13:40;;;;;;;7.10;3.13;;;;;;;22.48;70.04;94873.50;5074809;28;20674;-65
2022/07/04 01:16:07;;;;;;;6.65;3.17;;;;;;;22.35;73.48;94793.16;5074930;28;20201;-65
2022/07/04 01:18:32;;;;;;;4.25;3.08;;;;;;;22.44;72.84;94805.69;5074922;28;20188;-64
2022/07/04 01:20:57;;;;;;;3.30;3.00;;;;;;;22.41;72.37;94813.09;5074802;28;20584;-65
2022/07/04 01:23:23;;;;;;;3.22;2.85;;;;;;;22.43;70.64;94855.13;5056884;28;20173;-65
2022/07/04 01:25:50;;;;;;;4.43;2.97;;;;;;;22.56;72.40;94817.06;5056588;28;20199;-61
2022/07/04 01:28:18;;;;;;;10.48;3.30;;;;;;;22.63;70.29;94871.53;5074588;28;20208;-65
2022/07/04 01:30:43;;;;;;;3.90;3.03;;;;;;;22.64;69.46;94882.72;5074935;28;20195;-60
2022/07/04 01:33:09;;;;;;;8.52;2.85;;;;;;;22.67;67.34;94923.78;5056472;28;20204;-64
2022/07/04 01:35:34;;;;;;;2.83;2.30;;;;;;;22.60;68.22;94890.09;5074453;28;20185;-65
2022/07/04 01:38:00;;;;;;;4.90;2.88;;;;;;;22.55;67.82;94898.44;5074355;28;20193;-66
2022/07/04 01:40:25;;;;;;;3.35;2.75;;;;;;;22.62;67.96;94903.66;5074521;28;20196;-65
2022/07/04 01:42:51;;;;;;;3.75;2.75;;;;;;;22.59;66.91;94922.19;5074105;28;20192;-66
2022/07/04 01:45:16;;;;;;;5.35;2.83;;;;;;;22.53;67.67;94899.59;5074452;28;20177;-64
2022/07/04 01:47:42;;;;;;;2.72;2.50;;;;;;;22.63;68.31;94884.50;5074140;28;20276;-65
2022/07/04 01:50:12;;;;;;;5.50;2.95;;;;;;;22.62;64.50;94971.06;5074311;28;20262;-66
2022/07/04 01:52:38;;;;;;;3.78;2.47;;;;;;;22.50;66.09;94925.94;5074081;28;20250;-65
2022/07/04 01:55:05;;;;;;;3.83;2.33;;;;;;;22.53;64.69;94948.84;5074229;28;20204;-64
2022/07/04 01:57:30;;;;;;;4.82;2.45;;;;;;;22.50;66.25;94907.78;5073879;28;20205;-64
2022/07/04 02:02:40;;;;;;;4.28;2.30;;;;;;;22.48;65.79;94918.34;5074055;28;20224;-64
2022/07/04 02:05:05;;;;;;;6.30;2.42;;;;;;;22.45;64.00;94951.63;5074326;28;20557;-60
2022/07/04 02:07:31;;;;;;;4.03;2.78;;;;;;;22.38;65.88;94909.38;5073573;28;20203;-65
2022/07/04 02:09:56;;;;;;;4.32;2.20;;;;;;;22.42;64.32;94946.84;5073905;28;20620;-65
2022/07/04 02:15:06;;;;;;;3.40;2.72;;;;;;;22.39;66.02;94893.63;5074267;28;20199;-61
2022/07/04 02:17:33;;;;;;;5.47;2.70;;;;;;;22.44;65.77;94901.59;5055573;28;20200;-60
2022/07/04 02:19:58;;;;;;;2.40;2.20;;;;;;;22.40;65.27;94928.09;5073585;28;20200;-64
2022/07/04 02:22:24;;;;;;;4.45;2.83;;;;;;;22.37;65.23;94929.28;5073656;28;20220;-64
2022/07/04 02:24:49;;;;;;;3.33;2.72;;;;;;;22.39;63.70;94958.38;5073581;28;20623;-65
2022/07/04 02:27:15;;;;;;;3.65;2.38;;;;;;;22.39;65.36;94926.50;5073655;28;20208;-65
2022/07/04 02:29:41;;;;;;;3.65;2.17;;;;;;;22.49;65.14;94937.28;5055491;28;20662;-61
2022/07/04 02:32:07;;;;;;;10.35;2.80;;;;;;;22.60;63.73;94962.69;5055391;28;20201;-65
2022/07/04 02:34:33;;;;;;;3.70;2.83;;;;;;;22.55;63.55;94960.63;5073584;28;20185;-65
2022/07/04 02:36:59;;;;;;;4.93;2.75;;;;;;;22.52;65.30;94921.34;5055236;28;20638;-66
2022/07/04 02:39:24;;;;;;;4.40;2.70;;;;;;;22.66;65.42;94923.00;5073160;28;20663;-63
2022/07/04 02:41:51;;;;;;;3.10;2.35;;;;;;;22.72;65.05;94927.41;5073119;28;20242;-64
2022/07/04 02:44:16;;;;;;;5.38;2.40;;;;;;;22.76;64.53;94938.16;5073042;28;20181;-64
2022/07/04 02:46:42;;;;;;;5.50;2.50;;;;;;;22.71;62.88;94977.66;5073454;28;20203;-66
2022/07/04 02:49:07;;;;;;;3.65;2.10;;;;;;;22.78;63.09;94967.28;5072970;28;20177;-66
2022/07/04 02:51:33;;;;;;;2.90;2.45;;;;;;;22.77;63.45;94961.31;5073815;28;20258;-66
2022/07/04 02:53:59;;;;;;;2.40;2.20;;;;;;;22.81;62.69;94991.03;5073152;28;20217;-63
2022/07/04 02:56:25;;;;;;;2.45;2.25;;;;;;;22.71;59.44;95049.44;5072556;28;20697;-68
2022/07/04 02:58:50;;;;;;;4.25;2.20;;;;;;;22.40;59.51;95031.75;5072683;28;20654;-65
2022/07/04 03:01:16;;;;;;;2.10;1.90;;;;;;;22.43;58.61;95062.44;5072934;28;20667;-65
2022/07/04 03:03:41;;;;;;;2.25;2.05;;;;;;;22.28;58.31;95054.00;5054651;28;20189;-64
2022/07/04 03:06:08;;;;;;;6.70;2.47;;;;;;;21.93;59.65;95008.38;5072491;28;20177;-65
2022/07/04 03:08:34;;;;;;;3.88;2.38;;;;;;;21.81;62.60;94937.38;5072594;28;20212;-65
2022/07/04 03:10:59;;;;;;;4.88;2.85;;;;;;;21.83;61.63;94982.03;5072920;28;20227;-66
2022/07/04 03:13:26;;;;;;;2.30;2.10;;;;;;;21.91;63.87;94930.91;5072556;28;20758;-64
2022/07/04 03:15:51;;;;;;;3.67;2.17;;;;;;;22.10;60.93;95009.69;5072870;28;20195;-66
2022/07/04 03:18:18;;;;;;;6.55;2.80;;;;;;;21.96;61.38;94987.31;5072032;28;20280;-65
2022/07/04 03:20:43;;;;;;;3.72;2.42;;;;;;;21.80;63.66;94931.41;5072552;28;20195;-64
2022/07/04 03:23:09;;;;;;;4.82;2.28;;;;;;;22.04;66.09;94878.38;5072280;28;20272;-64
2022/07/04 03:25:35;;;;;;;2.70;2.30;;;;;;;22.23;65.44;94906.13;5072627;28;20177;-66
2022/07/04 03:28:00;;;;;;;3.42;2.80;;;;;;;22.46;65.27;94924.72;5072117;28;20197;-65
2022/07/04 03:30:26;;;;;;;4.50;2.67;;;;;;;22.59;61.33;95006.91;5072367;28;20185;-64
2022/07/04 03:32:52;;;;;;;2.85;2.50;;;;;;;22.46;61.53;94994.69;5072351;28;20204;-64
2022/07/04 03:35:17;;;;;;;4.35;2.50;;;;;;;22.30;62.82;94962.13;5072452;28;20204;-64
2022/07/04 03:37:42;;;;;;;5.13;2.80;;;;;;;22.10;65.14;94898.31;5072017;28;20689;-64
2022/07/04 03:40:09;;;;;;;7.25;2.60;;;;;;;22.13;67.45;94851.28;5072290;28;20654;-60
2022/07/04 03:42:34;;;;;;;4.45;3.00;;;;;;;22.19;66.29;94885.00;5071872;28;20266;-64
2022/07/04 03:45:00;;;;;;;6.30;3.20;;;;;;;22.26;65.11;94926.47;5054056;28;20188;-64
2022/07/04 03:47:33;;;;;;;4.78;3.08;;;;;;;22.05;65.65;94898.09;5071907;28;20213;-64
2022/07/04 03:49:59;;;;;;;5.63;3.13;;;;;;;21.76;67.64;94849.94;5072143;28;20207;-64
2022/07/04 03:52:24;;;;;;;6.65;3.38;;;;;;;21.48;69.27;94816.38;5071665;28;20600;-64
2022/07/04 03:54:50;;;;;;;9.40;4.07;;;;;;;21.55;69.62;94813.84;5071968;28;20230;-64
2022/07/04 03:57:16;;;;;;;4.78;3.80;;;;;;;21.40;71.17;94785.50;5071598;28;20224;-64
2022/07/04 03:59:41;;;;;;;7.75;3.97;;;;;;;21.36;71.41;94779.13;5060749;22;20712;-64
2022/07/04 04:02:06;;;;;;;6.47;4.22;;;;;;;21.34;72.61;94767.34;5058463;22;20237;-64
2022/07/04 04:07:16;;;;;;;8.85;4.05;;;;;;;21.29;73.99;94760.16;5051661;28;20323;-63
2022/07/04 04:09:41;;;;;;;5.63;3.35;;;;;;;21.24;70.32;94829.78;5052034;28;20186;-63
2022/07/04 04:12:07;;;;;;;6.22;3.30;;;;;;;21.17;69.96;94839.28;5051608;28;20297;-63
2022/07/04 04:14:32;;;;;;;6.35;3.72;;;;;;;21.19;71.51;94798.50;5033689;28;20219;-64
2022/07/04 04:16:58;;;;;;;4.35;3.40;;;;;;;21.30;69.90;94835.97;5051898;28;20659;-64
2022/07/04 04:19:23;;;;;;;6.53;3.55;;;;;;;21.26;70.34;94824.41;5051704;28;20564;-63
2022/07/04 04:21:49;;;;;;;3.33;2.88;;;;;;;21.24;68.05;94873.75;5051757;28;20691;-63
2022/07/04 04:24:14;;;;;;;5.43;3.20;;;;;;;21.06;69.66;94839.81;5033617;28;20663;-64
2022/07/04 04:26:40;;;;;;;5.25;2.75;;;;;;;20.93;70.86;94812.06;5051817;28;20269;-64
2022/07/04 04:29:05;;;;;;;8.65;3.63;;;;;;;21.04;70.10;94846.97;5051269;28;20182;-65
2022/07/04 04:31:31;;;;;;;5.40;3.30;;;;;;;21.11;71.58;94811.59;5055323;28;20307;-63
2022/07/04 04:33:57;;;;;;;6.20;2.83;;;;;;;21.23;70.93;94835.94;5055496;28;20228;-63
2022/07/04 04:36:22;;;;;;;6.22;2.60;;;;;;;21.24;68.61;94873.75;5055589;28;20205;-65
2022/07/04 04:38:48;;;;;;;5.20;2.65;;;;;;;21.15;68.53;94871.50;5037480;28;20182;-67
2022/07/04 04:41:13;;;;;;;3.50;3.08;;;;;;;21.20;72.03;94826.00;5054824;28;20637;-63
2022/07/04 04:43:39;;;;;;;4.13;3.00;;;;;;;21.48;76.73;94787.13;5055356;28;20201;-64
2022/07/04 04:46:04;;;;;;;7.00;3.60;;;;;;;21.59;71.97;94866.81;5055389;28;20189;-63
2022/07/04 04:48:30;;;;;;;6.60;3.05;;;;;;;21.63;70.43;94878.38;5055556;28;20255;-62
2022/07/04 04:50:55;;;;;;;5.65;3.05;;;;;;;21.71;68.81;94904.88;5037208;28;20193;-63
2022/07/04 04:53:25;;;;;;;4.75;3.28;;;;;;;21.80;67.96;94913.28;5055209;28;20166;-63
2022/07/04 04:55:51;;;;;;;6.65;3.70;;;;;;;21.71;69.65;94883.38;5055277;28;20182;-62
2022/07/04 04:58:17;;;;;;;6.38;3.22;;;;;;;21.71;67.54;94917.03;5069059;22;20310;-63
2022/07/04 05:00:42;;;;;;;3.60;3.17;;;;;;;21.84;66.34;94937.81;5055118;28;20178;-63
2022/07/04 05:03:08;;;;;;;5.30;3.40;;;;;;;21.83;69.30;94874.09;5055072;28;20228;-64
2022/07/04 05:05:33;;;;;;;3.92;3.00;;;;;;;21.82;65.35;94970.06;5062203;22;20224;-63
2022/07/04 05:07:59;;;;;;;10.88;3.38;;;;;;;21.87;67.80;94908.16;5055031;28;20225;-64
2022/07/04 05:10:24;;;;;;;10.55;4.78;;;;;;;22.03;68.46;94884.53;5054760;28;20674;-63
2022/07/04 05:12:50;;;;;;;6.85;3.92;;;;;;;22.40;69.39;94882.25;5054841;28;20271;-64
2022/07/04 05:15:15;;;;;;;6.55;3.35;;;;;;;22.64;66.36;94937.97;5054825;28;20565;-63
2022/07/04 05:17:41;;;;;;;18.15;6.00;;;;;;;22.54;64.31;94978.97;5054700;28;20213;-64
2022/07/04 05:20:07;;;;;;;10.07;4.70;;;;;;;22.75;63.71;94984.03;5054729;28;20170;-63
2022/07/04 05:22:33;;;;;;;11.27;4.40;;;;;;;22.60;62.91;94991.19;5054240;28;20217;-60
2022/07/04 05:24:59;;;;;;;12.73;5.20;;;;;;;22.64;67.93;94867.16;5054758;28;20231;-62
2022/07/04 05:27:25;;;;;;;7.32;4.10;;;;;;;22.81;65.75;94936.56;5054516;28;20744;-63
2022/07/04 05:29:51;;;;;;;11.20;3.45;;;;;;;22.92;63.16;95000.03;5036649;28;20427;-64
2022/07/04 05:32:17;;;;;;;6.07;4.40;;;;;;;22.89;64.12;94979.66;5035770;28;20620;-61
2022/07/04 05:34:42;;;;;;;6.15;3.72;;;;;;;23.13;65.86;94928.03;5053645;28;20264;-63
2022/07/04 05:37:08;;;;;;;6.22;3.20;;;;;;;23.34;64.57;94963.38;5053065;28;20197;-63
2022/07/04 05:39:33;;;;;;;6.13;3.35;;;;;;;23.39;63.62;94988.75;5053714;28;20178;-61
2022/07/04 05:41:58;;;;;;;6.88;3.13;;;;;;;23.74;64.06;94979.72;5053558;28;20292;-60
2022/07/04 05:44:24;;;;;;;8.73;3.70;;;;;;;23.84;62.74;95001.66;5054719;28;20731;-60
2022/07/04 05:46:49;;;;;;;8.63;3.97;;;;;;;23.95;62.17;95018.44;5054183;28;20667;-62
2022/07/04 05:49:15;;;;;;;8.20;3.15;;;;;;;24.17;61.64;95022.41;5054941;28;20186;-63
2022/07/04 05:51:43;;;;;;;7.72;3.67;;;;;;;24.41;59.42;95059.94;5054412;28;20259;-63
2022/07/04 05:54:15;;;;;;;4.85;2.83;;;;;;;24.56;59.11;95069.09;5036448;28;20178;-64
2022/07/04 05:56:42;;;;;;;6.78;3.72;;;;;;;24.32;58.94;95054.16;5054345;28;20272;-64
2022/07/04 05:59:09;;;;;;;9.30;3.55;;;;;;;24.06;59.39;95036.03;5036530;28;20235;-63
2022/07/04 06:01:34;;;;;;;5.72;3.65;;;;;;;23.75;60.22;95007.28;5054264;28;20255;-63
2022/07/04 06:04:00;;;;;;;7.55;3.10;;;;;;;23.71;59.80;95026.88;5054159;28;20220;-62
2022/07/04 06:06:26;;;;;;;5.80;3.08;;;;;;;24.05;60.64;95013.66;5054100;28;20197;-63
2022/07/04 06:08:51;;;;;;;39.65;27.33;;;;;;;24.32;60.16;95019.59;5054171;28;20251;-63
2022/07/04 06:11:18;;;;;;;10.38;6.68;;;;;;;24.22;60.54;95009.59;5053835;28;20232;-63
2022/07/04 06:13:43;;;;;;;17.25;11.32;;;;;;;23.98;61.32;94990.25;5054294;28;20708;-61
2022/07/04 06:16:09;;;;;;;8.30;3.72;;;;;;;23.85;61.12;94997.28;5053881;28;20259;-62
2022/07/04 06:18:34;;;;;;;4.70;3.30;;;;;;;23.53;59.37;95045.66;5054144;28;20181;-63
2022/07/04 06:21:00;;;;;;;5.00;3.13;;;;;;;23.27;58.48;95053.38;5035674;28;20291;-64
2022/07/04 06:23:26;;;;;;;5.80;3.28;;;;;;;23.50;58.78;95047.81;5053842;28;20217;-61
2022/07/04 06:25:51;;;;;;;5.47;3.10;;;;;;;23.72;59.06;95033.66;5053579;28;20209;-63
2022/07/04 06:28:17;;;;;;;10.77;3.38;;;;;;;23.60;58.49;95045.63;5053538;28;20221;-62
2022/07/04 06:30:42;;;;;;;5.40;3.40;;;;;;;23.64;58.49;95041.63;5053495;28;20682;-64
2022/07/04 06:33:08;;;;;;;4.85;3.40;;;;;;;23.70;61.32;94973.31;5053151;28;20210;-64
2022/07/04 06:35:46;;;;;;;5.10;2.70;;;;;;;23.83;59.06;95033.06;5053289;28;20181;-63
2022/07/04 06:38:17;;;;;;;5.20;2.92;;;;;;;24.13;58.44;95048.03;5053514;28;20632;-61
2022/07/04 06:40:43;;;;;;;5.50;2.92;;;;;;;24.24;58.20;95043.97;5060227;22;20736;-60
2022/07/04 06:43:09;;;;;;;6.43;3.47;;;;;;;24.20;58.13;95042.78;5053257;28;20679;-61
2022/07/04 06:45:35;;;;;;;8.77;3.80;;;;;;;24.33;56.24;95092.16;5053699;28;20532;-61
2022/07/04 06:48:02;;;;;;;7.03;3.25;;;;;;;24.22;55.87;95087.56;5060093;22;20200;-61
2022/07/04 06:50:27;;;;;;;4.97;2.95;;;;;;;24.29;56.37;95061.56;5074295;22;20851;-61
2022/07/04 06:52:53;;;;;;;5.05;3.17;;;;;;;24.37;56.91;95048.34;5059531;22;20251;-63
2022/07/04 06:55:38;;;;;;;6.28;2.95;;;;;;;24.42;56.23;95061.56;5052181;28;20169;-64
2022/07/04 06:58:04;;;;;;;7.88;3.00;;;;;;;24.51;57.86;95010.91;5053006;28;20212;-63
2022/07/04 07:00:30;;;;;;;8.50;3.00;;;;;;;24.56;57.38;95032.72;5052997;28;20655;-63
2022/07/04 07:02:57;;;;;;;7.43;2.85;;;;;;;24.58;58.01;95009.91;5052867;28;20300;-63
2022/07/04 07:05:24;;;;;;;5.38;3.13;;;;;;;24.79;56.91;95043.41;5052913;28;20216;-64
2022/07/04 07:07:49;;;;;;;6.25;3.35;;;;;;;24.84;56.84;95030.59;5035159;28;20715;-62
2022/07/04 07:10:15;;;;;;;4.63;3.20;;;;;;;24.90;56.11;95050.59;5035178;28;20572;-62
2022/07/04 07:12:41;;;;;;;7.68;3.08;;;;;;;24.70;54.95;95070.66;5052898;28;20197;-62
2022/07/04 07:15:07;;;;;;;6.97;3.35;;;;;;;24.63;56.82;95023.06;5052595;28;20239;-61
2022/07/04 07:17:32;;;;;;;10.38;3.55;;;;;;;24.52;57.33;94997.72;5052280;28;20212;-60
2022/07/04 07:19:57;;;;;;;4.35;3.53;;;;;;;24.53;58.68;94959.50;5052572;28;20655;-63
2022/07/04 07:22:23;;;;;;;5.30;2.97;;;;;;;24.71;58.78;94972.59;5034191;28;20224;-60
2022/07/04 07:24:49;;;;;;;9.55;4.00;;;;;;;24.88;58.44;94965.94;5052361;28;20545;-61
2022/07/04 07:27:14;;;;;;;6.43;3.53;;;;;;;24.90;58.02;94990.75;5059192;22;22907;-62
2022/07/04 07:29:39;;;;;;;6.65;3.47;;;;;;;24.86;57.77;94986.16;5051102;28;20235;-63
2022/07/04 07:32:05;;;;;;;8.23;3.38;;;;;;;24.80;57.23;95000.81;5052423;28;20213;-63
2022/07/04 07:34:31;;;;;;;7.85;3.50;;;;;;;24.65;56.34;95013.25;5052012;28;20640;-64
2022/07/04 07:36:57;;;;;;;6.32;3.72;;;;;;;24.59;56.89;95002.88;5052382;28;20335;-60
2022/07/04 07:39:22;;;;;;;4.15;3.40;;;;;;;24.55;58.66;94949.69;5052245;28;20210;-63
2022/07/04 07:41:48;;;;;;;8.02;4.32;;;;;;;24.55;59.57;94923.69;5050983;28;20304;-64
2022/07/04 07:44:13;;;;;;;8.88;3.60;;;;;;;24.72;59.79;94928.19;5033788;28;20195;-65
2022/07/04 07:46:39;;;;;;;7.55;4.15;;;;;;;24.84;57.82;94986.38;5051421;28;20258;-63
2022/07/04 07:49:05;;;;;;;6.80;4.22;;;;;;;24.89;56.49;95001.34;5051584;28;20199;-64
2022/07/04 07:51:31;;;;;;;7.80;4.30;;;;;;;25.08;55.76;95038.66;5051750;28;20197;-64
2022/07/04 07:53:56;;;;;;;7.72;4.45;;;;;;;25.19;56.10;95023.16;5052042;28;20202;-60
2022/07/04 07:56:22;;;;;;;4.72;4.05;;;;;;;25.21;57.04;94994.34;5051875;28;20233;-64
2022/07/04 07:58:48;;;;;;;9.43;4.18;;;;;;;25.19;58.82;94954.72;5034017;28;20269;-62
2022/07/04 08:01:13;;;;;;;7.38;3.95;;;;;;;25.49;58.33;94955.72;5051838;28;20600;-65
2022/07/04 08:06:23;;;;;;;9.23;4.55;;;;;;;25.49;58.46;94955.72;5051805;28;20209;-65
2022/07/04 08:08:48;;;;;;;8.30;4.30;;;;;;;25.62;58.99;94929.53;5051912;28;20178;-64
2022/07/04 08:11:13;;;;;;;9.38;4.50;;;;;;;25.66;58.34;94948.91;5051623;28;20614;-63
2022/07/04 08:13:40;;;;;;;12.20;4.88;;;;;;;25.70;58.92;94937.06;5052218;28;20213;-64
2022/07/04 08:16:06;;;;;;;5.97;3.92;;;;;;;25.85;58.74;94934.91;5051573;28;20205;-62
2022/07/04 08:18:32;;;;;;;5.13;4.25;;;;;;;26.00;56.95;94994.50;5051512;28;20185;-64
2022/07/04 08:20:58;;;;;;;8.93;4.38;;;;;;;26.01;55.48;95027.34;5051731;28;20231;-63
2022/07/04 08:23:24;;;;;;;13.13;4.80;;;;;;;26.07;56.40;94996.06;5052100;28;20232;-65
2022/07/04 08:25:50;;;;;;;10.52;4.70;;;;;;;26.16;56.28;94986.91;5033653;28;20213;-64
2022/07/04 08:28:16;;;;;;;8.38;4.75;;;;;;;26.24;57.85;94955.34;5051905;28;20213;-60
2022/07/04 08:30:41;;;;;;;5.97;4.95;;;;;;;26.40;56.60;94991.25;5058569;22;20222;-63
2022/07/04 08:33:07;;;;;;;6.30;4.32;;;;;;;26.20;57.62;94956.78;5051359;28;20200;-63
2022/07/04 08:35:33;;;;;;;11.70;4.25;;;;;;;26.34;56.52;94981.69;5052065;28;20518;-63
2022/07/04 08:37:59;;;;;;;8.23;4.60;;;;;;;26.40;58.19;94928.66;5051675;28;20274;-62
2022/07/04 08:40:27;;;;;;;7.05;4.68;;;;;;;26.54;59.59;94898.00;5051821;28;20182;-62
2022/07/04 08:42:52;;;;;;;7.90;4.95;;;;;;;26.66;59.09;94916.28;5051443;28;20262;-64
2022/07/04 08:45:28;;;;;;;6.05;4.95;;;;;;;26.73;58.18;94941.31;5051767;28;20193;-65
2022/07/04 08:48:02;;;;;;;5.93;5.32;;;;;;;26.88;55.81;95008.75;5051488;28;20574;-64
2022/07/04 08:50:35;;;;;;;8.73;5.70;;;;;;;26.85;56.39;94990.91;5033720;28;20651;-65
2022/07/04 08:53:10;;;;;;;7.05;5.38;;;;;;;26.79;60.87;94864.75;5050970;28;20208;-63
2022/07/04 08:58:29;;;;;;;8.85;6.13;;;;;;;26.95;60.11;94884.16;5051352;28;20712;-63
2022/07/04 09:00:58;;;;;;;7.18;4.97;;;;;;;27.05;59.70;94903.47;5050886;28;20352;-64
2022/07/04 09:03:25;;;;;;;6.07;4.57;;;;;;;27.10;60.31;94884.53;5051364;28;20173;-64
2022/07/04 09:05:51;;;;;;;9.15;5.05;;;;;;;27.31;59.07;94910.88;5051349;28;20276;-63
2022/07/04 09:08:18;;;;;;;6.50;5.18;;;;;;;27.49;60.37;94886.53;5051189;28;20263;-65
2022/07/04 09:10:43;;;;;;;10.85;4.72;;;;;;;27.29;56.81;94969.59;5033502;28;20192;-61
2022/07/04 09:13:10;;;;;;;11.68;4.95;;;;;;;27.62;56.15;95003.84;5033132;28;20296;-61
2022/07/04 09:15:36;;;;;;;7.45;5.00;;;;;;;27.69;53.73;95056.81;5051573;28;20204;-65
2022/07/04 09:18:02;;;;;;;5.72;4.60;;;;;;;27.63;56.17;94979.31;5035900;28;20197;-65
2022/07/04 09:20:31;;;;;;;8.27;5.20;;;;;;;27.62;57.31;94951.59;5055162;28;20251;-64
2022/07/04 09:22:58;;;;;;;8.07;5.00;;;;;;;27.90;58.16;94919.53;5054468;28;20244;-66
2022/07/04 09:25:24;;;;;;;9.00;5.22;;;;;;;27.97;56.58;94967.28;5055010;28;20185;-64
2022/07/04 09:27:54;;;;;;;7.78;4.40;;;;;;;28.32;54.29;95028.19;5054444;28;20321;-63
2022/07/04 09:30:22;;;;;;;6.75;4.80;;;;;;;28.36;56.55;94963.13;5054160;28;20216;-64
2022/07/04 09:32:59;;;;;;;8.60;6.10;;;;;;;28.49;56.42;94955.81;5054492;28;20205;-64
2022/07/04 09:35:26;;;;;;;9.57;4.97;;;;;;;28.57;56.56;94957.28;5022011;28;20185;-60
2022/07/04 09:37:54;;;;;;;8.43;4.80;;;;;;;28.71;54.45;95021.41;5036007;28;20236;-64
2022/07/04 09:40:28;;;;;;;9.52;5.80;;;;;;;28.77;53.60;95028.34;5054092;28;20182;-64
2022/07/04 09:42:57;;;;;;;4.63;4.22;;;;;;;28.84;52.57;95057.81;5054164;28;20224;-64
2022/07/04 09:45:24;;;;;;;5.30;4.85;;;;;;;28.83;50.33;95095.47;5054160;28;20182;-64
2022/07/04 09:47:57;;;;;;;13.90;4.70;;;;;;;28.83;52.43;95030.03;5054105;28;20194;-64
2022/07/04 09:50:25;;;;;;;5.28;4.72;;;;;;;29.03;52.10;95048.72;5054595;28;20250;-64
2022/07/04 09:52:53;;;;;;;6.88;5.13;;;;;;;28.89;51.49;95047.41;5054051;28;20280;-64
2022/07/04 09:55:24;;;;;;;6.43;4.45;;;;;;;28.89;53.28;94992.44;5053986;28;20185;-64
2022/07/04 09:57:51;;;;;;;6.40;4.80;;;;;;;29.08;52.89;95006.13;5054034;28;20200;-62
2022/07/04 10:00:18;;;;;;;8.27;5.28;;;;;;;29.10;50.97;95049.41;5054368;28;20276;-61
2022/07/04 10:02:44;;;;;;;6.22;4.55;;;;;;;29.25;51.58;95039.22;5053619;28;20213;-61
2022/07/04 10:05:10;;;;;;;8.45;4.90;;;;;;;29.46;51.88;95025.44;5054173;28;20273;-66
2022/07/04 10:07:43;;;;;;;6.53;4.80;;;;;;;29.45;50.43;95080.72;5053915;28;20255;-64
2022/07/04 10:10:25;;;;;;;5.53;4.85;;;;;;;29.46;49.78;95082.28;5035947;28;20209;-63
2022/07/04 10:12:53;;;;;;;8.75;5.60;;;;;;;29.75;48.39;95113.50;5035704;28;20198;-63
2022/07/04 10:15:19;;;;;;;5.75;5.18;;;;;;;29.63;49.90;95062.94;5035593;28;20186;-60
2022/07/04 10:17:45;;;;;;;6.22;5.25;;;;;;;29.63;48.70;95083.91;5053520;28;20571;-65
2022/07/04 10:20:12;;;;;;;7.07;4.90;;;;;;;29.83;48.01;95126.25;5054093;28;20264;-62
2022/07/04 10:22:38;;;;;;;6.15;5.10;;;;;;;29.65;47.26;95133.47;5053533;28;20217;-65
2022/07/04 10:25:04;;;;;;;7.82;5.32;;;;;;;29.48;48.74;95075.78;5053799;28;20177;-64
2022/07/04 10:27:30;;;;;;;5.20;4.68;;;;;;;29.76;50.27;95020.69;5053181;28;20193;-61
2022/07/04 10:29:57;;;;;;;5.55;5.05;;;;;;;29.97;49.82;95028.88;5053152;28;20659;-64
2022/07/04 10:32:24;;;;;;;5.65;5.05;;;;;;;30.19;49.97;95013.97;5035507;28;20248;-63
2022/07/04 10:34:49;;;;;;;9.27;5.72;;;;;;;30.41;48.49;95077.81;5053722;28;20558;-64
2022/07/04 10:37:16;;;;;;;8.85;5.65;;;;;;;29.87;49.06;95044.44;5035182;28;20194;-65
2022/07/04 10:39:41;;;;;;;8.43;5.30;;;;;;;30.18;49.46;95038.63;5035505;28;20188;-63
2022/07/04 10:42:07;;;;;;;9.32;5.03;;;;;;;30.31;49.92;95027.81;5053026;28;20209;-64
2022/07/04 10:44:40;;;;;;;7.30;5.80;;;;;;;30.45;46.83;95107.78;5052796;28;20231;-64
2022/07/04 10:47:20;;;;;;;6.82;5.03;;;;;;;30.60;48.77;95035.25;5053182;28;20209;-61
2022/07/04 10:49:48;;;;;;;5.53;5.03;;;;;;;30.85;48.30;95062.88;5053014;28;20189;-66
2022/07/04 10:52:14;;;;;;;6.45;5.32;;;;;;;30.60;47.16;95102.75;5034818;28;20208;-64
2022/07/04 10:54:41;;;;;;;9.05;5.47;;;;;;;30.92;45.03;95144.94;5053130;28;20559;-60
2022/07/04 10:57:16;;;;;;;5.75;4.70;;;;;;;30.85;45.89;95095.22;5052830;28;20217;-61
2022/07/04 11:00:03;;;;;;;5.53;5.03;;;;;;;31.37;47.48;95046.38;5053225;28;20181;-61
2022/07/04 11:02:31;;;;;;;5.63;5.13;;;;;;;31.63;47.49;95049.28;5039193;28;20252;-63
2022/07/04 11:04:57;;;;;;;5.82;5.25;;;;;;;31.68;45.76;95092.19;5053095;28;20242;-61
2022/07/04 11:07:42;;;;;;;6.35;4.78;;;;;;;31.43;46.91;95058.56;5052725;28;20268;-64
2022/07/04 11:10:11;;;;;;;5.63;5.13;;;;;;;31.52;46.12;95068.63;5021447;28;20212;-64
2022/07/04 11:12:55;;;;;;;6.22;5.65;;;;;;;31.83;43.67;95146.75;5034527;28;20193;-61
2022/07/04 11:15:27;;;;;;;13.80;5.50;;;;;;;31.73;43.15;95155.38;5034803;28;20281;-61
2022/07/04 11:17:55;;;;;;;5.90;5.40;;;;;;;31.77;43.64;95124.88;5034507;28;20739;-64
2022/07/04 11:20:22;;;;;;;6.18;4.72;;;;;;;31.81;43.63;95122.53;5052869;28;20214;-65
2022/07/04 11:22:48;;;;;;;6.07;5.13;;;;;;;31.87;41.25;95209.16;5052333;28;20232;-63
2022/07/04 11:25:13;;;;;;;5.97;5.43;;;;;;;31.87;42.17;95161.00;5052763;28;20182;-64
2022/07/04 11:27:40;;;;;;;6.93;5.28;;;;;;;31.98;42.83;95120.59;5052271;28;20194;-65
2022/07/04 11:30:06;;;;;;;5.70;5.20;;;;;;;32.34;45.01;95047.97;5052026;28;20189;-64
2022/07/04 11:32:33;;;;;;;9.18;5.90;;;;;;;32.60;44.38;95068.94;5034265;28;20649;-62
2022/07/04 11:35:00;;;;;;;5.57;5.07;;;;;;;32.77;41.44;95174.91;5034299;28;20190;-65
2022/07/04 11:37:26;;;;;;;10.18;5.85;;;;;;;32.92;44.52;95059.06;5052100;28;20295;-63
2022/07/04 11:45:02;;;;;;;6.03;5.53;;;;;;;33.04;43.08;95095.75;5051601;28;20659;-63
2022/07/04 11:45:48;;;;;;;5.82;4.95;;;;;;;32.69;41.38;95145.63;5052802;28;20193;-63